Time;durP1;ratioP1;P1;durP2;ratioP2;P2;SDS_P1;SDS_P2;PMS_P1;PMS_P2;Temp;Humidity;BMP_temperature;BMP_pressure;BME280_temperature;BME280_humidity;BME280_pressure;Samples;Min_cycle;Max_cycle;Signal;HPM_P1;HPM_P2
2024/03/11 00:00:27;;;;;;;;;37.33;33.00;;;;;;;;5071567;27;45560;-59
2024/03/11 00:02:52;;;;;;;;;31.00;31.00;;;;;;;;5079057;27;45941;-58
2024/03/11 00:05:18;;;;;;;;;38.33;32.33;;;;;;;;5081422;27;45573;-58
2024/03/11 00:07:45;;;;;;;;;13.67;8.00;;;;;;;;5085118;27;45491;-58
2024/03/11 00:10:13;;;;;;;;;35.33;32.33;;;;;;;;5079349;27;45769;-58
2024/03/11 00:12:44;;;;;;;;;36.67;34.33;;;;;;;;5074843;27;45464;-59
2024/03/11 00:15:12;;;;;;;;;33.67;30.00;;;;;;;;5073275;27;45632;-58
2024/03/11 00:17:37;;;;;;;;;30.67;27.33;;;;;;;;5082141;27;45353;-58
2024/03/11 00:20:04;;;;;;;;;36.33;30.67;;;;;;;;5077374;27;45350;-58
2024/03/11 00:22:29;;;;;;;;;27.33;24.33;;;;;;;;5088624;27;45378;-58
2024/03/11 00:24:54;;;;;;;;;25.00;23.00;;;;;;;;5084264;27;45395;-58
2024/03/11 00:27:21;;;;;;;;;22.67;17.33;;;;;;;;5080678;27;46248;-58
2024/03/11 00:29:47;;;;;;;;;20.33;19.00;;;;;;;;5082528;27;45303;-58
2024/03/11 00:32:14;;;;;;;;;17.00;16.00;;;;;;;;5081948;27;45468;-58
2024/03/11 00:34:41;;;;;;;;;19.67;18.00;;;;;;;;5081524;27;45790;-59
2024/03/11 00:37:07;;;;;;;;;18.67;17.00;;;;;;;;5081307;27;47119;-59
2024/03/11 00:39:34;;;;;;;;;18.33;17.00;;;;;;;;5082070;27;45414;-58
2024/03/11 00:41:59;;;;;;;;;14.00;13.67;;;;;;;;5085024;27;45390;-59
2024/03/11 00:44:24;;;;;;;;;16.33;15.00;;;;;;;;5081670;27;45562;-58
2024/03/11 00:46:49;;;;;;;;;22.33;15.00;;;;;;;;5079042;27;45356;-58
2024/03/11 00:49:15;;;;;;;;;15.33;15.00;;;;;;;;5074872;27;45378;-58
2024/03/11 00:51:41;;;;;;;;;15.67;13.33;;;;;;;;5088729;27;45301;-58
2024/03/11 00:54:06;;;;;;;;;13.33;13.33;;;;;;;;5083186;27;45203;-58
2024/03/11 00:56:31;;;;;;;;;16.00;15.00;;;;;;;;5085914;27;46100;-59
2024/03/11 00:58:59;;;;;;;;;12.67;10.67;;;;;;;;5086088;27;45386;-59
2024/03/11 01:01:25;;;;;;;;;16.00;16.00;;;;;;;;5084141;27;45612;-59
2024/03/11 01:03:50;;;;;;;;;16.67;14.00;;;;;;;;5080292;27;45473;-59
2024/03/11 01:06:16;;;;;;;;;16.00;14.00;;;;;;;;5084406;27;46695;-59
2024/03/11 01:08:41;;;;;;;;;13.00;12.00;;;;;;;;5087412;27;45443;-58
2024/03/11 01:11:06;;;;;;;;;13.33;13.33;;;;;;;;5089749;27;45504;-58
2024/03/11 01:13:32;;;;;;;;;15.67;14.33;;;;;;;;5090871;27;45529;-58
2024/03/11 01:15:57;;;;;;;;;18.33;15.33;;;;;;;;5082329;27;46551;-58
2024/03/11 01:18:24;;;;;;;;;13.67;13.33;;;;;;;;5088094;27;46470;-58
2024/03/11 01:20:50;;;;;;;;;15.00;13.67;;;;;;;;5076959;27;45528;-59
2024/03/11 01:23:16;;;;;;;;;12.00;12.00;;;;;;;;5082232;27;45361;-59
2024/03/11 01:25:42;;;;;;;;;15.00;13.67;;;;;;;;5084744;27;45315;-58
2024/03/11 01:28:08;;;;;;;;;10.67;10.67;;;;;;;;5076841;27;45606;-58
2024/03/11 01:30:34;;;;;;;;;15.00;10.33;;;;;;;;5078112;27;45549;-58
2024/03/11 01:33:02;;;;;;;;;16.67;14.67;;;;;;;;5073442;27;45402;-58
2024/03/11 01:35:27;;;;;;;;;15.67;14.00;;;;;;;;5072702;27;46444;-58
2024/03/11 01:37:52;;;;;;;;;13.33;12.00;;;;;;;;5072082;27;45437;-59
2024/03/11 01:40:18;;;;;;;;;12.33;9.67;;;;;;;;5084438;27;45211;-58
2024/03/11 01:42:43;;;;;;;;;13.00;11.67;;;;;;;;5077842;27;45417;-59
2024/03/11 01:45:09;;;;;;;;;9.67;9.67;;;;;;;;5082063;27;45369;-58
2024/03/11 01:47:37;;;;;;;;;16.33;14.67;;;;;;;;5087674;27;45322;-59
2024/03/11 01:50:03;;;;;;;;;13.00;9.33;;;;;;;;5077529;27;45535;-58
2024/03/11 01:52:33;;;;;;;;;10.67;9.67;;;;;;;;5076726;27;45491;-58
2024/03/11 01:54:59;;;;;;;;;13.00;13.00;;;;;;;;5079136;27;46484;-59
2024/03/11 01:57:25;;;;;;;;;13.67;11.33;;;;;;;;5081249;27;45515;-58
2024/03/11 01:59:52;;;;;;;;;14.67;12.67;;;;;;;;5067216;27;45476;-59
2024/03/11 02:02:20;;;;;;;;;12.00;11.00;;;;;;;;5078492;27;45409;-58
2024/03/11 02:04:45;;;;;;;;;12.00;12.00;;;;;;;;5072871;27;46335;-59
2024/03/11 02:07:13;;;;;;;;;15.67;13.67;;;;;;;;5070336;27;45432;-59
2024/03/11 02:09:39;;;;;;;;;16.00;14.33;;;;;;;;5080471;27;45429;-59
2024/03/11 02:12:05;;;;;;;;;18.33;14.67;;;;;;;;5075463;27;45450;-58
2024/03/11 02:14:30;;;;;;;;;13.33;13.33;;;;;;;;5082644;27;45314;-58
2024/03/11 02:16:58;;;;;;;;;14.67;12.33;;;;;;;;5073519;27;45252;-59
2024/03/11 02:19:23;;;;;;;;;13.67;12.67;;;;;;;;5085898;27;45412;-59
2024/03/11 02:21:51;;;;;;;;;13.00;13.00;;;;;;;;5081289;27;45520;-58
2024/03/11 02:24:16;;;;;;;;;18.33;15.00;;;;;;;;5083798;27;47481;-58
2024/03/11 02:26:42;;;;;;;;;13.33;12.33;;;;;;;;5079274;27;45394;-58
2024/03/11 02:29:08;;;;;;;;;18.00;13.67;;;;;;;;5072122;27;45615;-58
2024/03/11 02:31:35;;;;;;;;;14.33;14.33;;;;;;;;5076526;27;45364;-59
2024/03/11 02:34:00;;;;;;;;;11.33;11.33;;;;;;;;5079446;27;45342;-59
2024/03/11 02:36:25;;;;;;;;;14.67;13.33;;;;;;;;5074982;27;45322;-58
2024/03/11 02:38:50;;;;;;;;;16.67;13.00;;;;;;;;5077424;27;45596;-59
2024/03/11 02:41:16;;;;;;;;;13.00;13.00;;;;;;;;5078430;27;45504;-59
2024/03/11 02:43:41;;;;;;;;;19.33;14.33;;;;;;;;5083224;27;45396;-59
2024/03/11 02:46:06;;;;;;;;;17.33;12.67;;;;;;;;5080347;27;45458;-59
2024/03/11 02:48:31;;;;;;;;;18.67;14.00;;;;;;;;5080075;27;45306;-59
2024/03/11 02:50:57;;;;;;;;;12.00;12.00;;;;;;;;5079998;27;45443;-58
2024/03/11 02:53:22;;;;;;;;;16.00;15.67;;;;;;;;5081386;27;47062;-59
2024/03/11 02:55:47;;;;;;;;;14.00;12.00;;;;;;;;5077790;27;45334;-59
2024/03/11 02:58:12;;;;;;;;;13.67;13.67;;;;;;;;5083442;27;45656;-58
2024/03/11 03:00:37;;;;;;;;;13.33;13.00;;;;;;;;5077799;27;45444;-59
2024/03/11 03:03:05;;;;;;;;;14.00;11.33;;;;;;;;5075625;27;45614;-59
2024/03/11 03:05:30;;;;;;;;;14.67;12.33;;;;;;;;5079576;27;45453;-58
2024/03/11 03:07:56;;;;;;;;;18.33;15.67;;;;;;;;5081298;27;45506;-59
2024/03/11 03:10:21;;;;;;;;;15.00;12.00;;;;;;;;5080089;27;45914;-59
2024/03/11 03:12:46;;;;;;;;;13.00;11.00;;;;;;;;5078337;27;46226;-59
2024/03/11 03:15:12;;;;;;;;;12.00;12.00;;;;;;;;5081756;27;45381;-59
2024/03/11 03:17:38;;;;;;;;;20.67;13.67;;;;;;;;5079812;27;45464;-59
2024/03/11 03:20:05;;;;;;;;;14.67;14.33;;;;;;;;5069201;27;45440;-59
2024/03/11 03:22:30;;;;;;;;;15.00;13.00;;;;;;;;5070317;27;46219;-59
2024/03/11 03:24:56;;;;;;;;;13.00;13.00;;;;;;;;5074450;27;45409;-59
2024/03/11 03:27:21;;;;;;;;;15.00;13.00;;;;;;;;5074134;27;45670;-59
2024/03/11 03:29:46;;;;;;;;;15.00;13.00;;;;;;;;5083658;27;45586;-59
2024/03/11 03:32:12;;;;;;;;;14.00;12.67;;;;;;;;5080636;27;46290;-59
2024/03/11 03:34:37;;;;;;;;;13.33;13.33;;;;;;;;5078887;27;45530;-59
2024/03/11 03:37:02;;;;;;;;;15.33;13.00;;;;;;;;5081204;27;45452;-59
2024/03/11 03:39:28;;;;;;;;;13.00;13.00;;;;;;;;5075506;27;45591;-59
2024/03/11 03:41:53;;;;;;;;;16.00;14.33;;;;;;;;5074600;27;48231;-59
2024/03/11 03:44:19;;;;;;;;;13.33;13.33;;;;;;;;5079928;27;45385;-59
2024/03/11 03:46:44;;;;;;;;;17.33;13.67;;;;;;;;5082165;27;45409;-59
2024/03/11 03:49:09;;;;;;;;;12.00;10.33;;;;;;;;5082843;27;45648;-59
2024/03/11 03:51:34;;;;;;;;;14.00;14.00;;;;;;;;5075637;27;45529;-59
2024/03/11 03:53:59;;;;;;;;;15.00;11.33;;;;;;;;5079120;27;45446;-59
2024/03/11 03:56:29;;;;;;;;;16.33;15.00;;;;;;;;5079454;27;45418;-59
2024/03/11 03:58:54;;;;;;;;;12.33;12.33;;;;;;;;5082695;27;45537;-59
2024/03/11 04:01:22;;;;;;;;;18.33;13.67;;;;;;;;5079231;27;46784;-58
2024/03/11 04:03:47;;;;;;;;;14.00;10.67;;;;;;;;5081333;27;45355;-59
2024/03/11 04:06:12;;;;;;;;;13.00;13.00;;;;;;;;5083282;27;45590;-59
2024/03/11 04:08:38;;;;;;;;;10.33;9.00;;;;;;;;5085885;27;45349;-59
2024/03/11 04:11:05;;;;;;;;;14.00;13.00;;;;;;;;5083656;27;46199;-59
2024/03/11 04:13:30;;;;;;;;;14.33;12.00;;;;;;;;5076724;27;45519;-59
2024/03/11 04:15:56;;;;;;;;;14.67;13.33;;;;;;;;5080457;27;45354;-59
2024/03/11 04:18:23;;;;;;;;;8.67;8.67;;;;;;;;5074793;27;45731;-58
2024/03/11 04:20:49;;;;;;;;;14.00;12.00;;;;;;;;5073060;27;46286;-59
2024/03/11 04:23:14;;;;;;;;;12.00;12.00;;;;;;;;5074382;27;45389;-59
2024/03/11 04:25:41;;;;;;;;;13.00;12.00;;;;;;;;5079204;27;46382;-59
2024/03/11 04:28:08;;;;;;;;;10.00;9.00;;;;;;;;5079783;27;45415;-60
2024/03/11 04:30:36;;;;;;;;;19.00;12.00;;;;;;;;5081136;27;45493;-59
2024/03/11 04:33:01;;;;;;;;;11.33;10.00;;;;;;;;5082420;27;45791;-59
2024/03/11 04:35:30;;;;;;;;;7.33;7.33;;;;;;;;5086145;27;45519;-58
2024/03/11 04:38:00;;;;;;;;;14.00;10.33;;;;;;;;5088638;27;45593;-59
2024/03/11 04:40:26;;;;;;;;;10.67;10.67;;;;;;;;5074797;27;46765;-59
2024/03/11 04:42:51;;;;;;;;;10.33;9.67;;;;;;;;5082202;27;45683;-59
2024/03/11 04:45:17;;;;;;;;;8.00;8.00;;;;;;;;5078407;27;45664;-59
2024/03/11 04:47:42;;;;;;;;;12.67;11.33;;;;;;;;5083753;27;45800;-59
2024/03/11 04:50:10;;;;;;;;;10.33;8.33;;;;;;;;5083308;27;45688;-59
2024/03/11 04:52:35;;;;;;;;;10.33;10.33;;;;;;;;5089052;27;45254;-59
2024/03/11 04:55:02;;;;;;;;;12.67;9.00;;;;;;;;5082103;27;45765;-59
2024/03/11 04:57:27;;;;;;;;;9.33;9.00;;;;;;;;5082042;27;45406;-59
2024/03/11 04:59:53;;;;;;;;;8.00;8.00;;;;;;;;5080208;27;46124;-58
2024/03/11 05:02:18;;;;;;;;;12.33;11.67;;;;;;;;5082972;27;45477;-59
2024/03/11 05:04:43;;;;;;;;;8.00;8.00;;;;;;;;5081798;27;45406;-59
2024/03/11 05:07:09;;;;;;;;;8.00;8.00;;;;;;;;5083743;27;45481;-59
2024/03/11 05:09:34;;;;;;;;;11.67;11.67;;;;;;;;5078865;27;46280;-59
2024/03/11 05:11:59;;;;;;;;;8.00;6.67;;;;;;;;5080176;27;45332;-59
2024/03/11 05:14:25;;;;;;;;;10.33;8.67;;;;;;;;5084326;27;45401;-59
2024/03/11 05:16:50;;;;;;;;;11.33;8.00;;;;;;;;5070313;27;45451;-59
2024/03/11 05:19:15;;;;;;;;;12.00;9.67;;;;;;;;5088668;27;45535;-58
2024/03/11 05:21:40;;;;;;;;;14.33;12.00;;;;;;;;5080235;27;45628;-59
2024/03/11 05:24:05;;;;;;;;;14.33;9.33;;;;;;;;5082099;27;45366;-58
2024/03/11 05:26:31;;;;;;;;;13.33;9.00;;;;;;;;5079463;27;45670;-59
2024/03/11 05:28:56;;;;;;;;;15.00;11.33;;;;;;;;5076171;27;45274;-58
2024/03/11 05:31:21;;;;;;;;;9.67;9.67;;;;;;;;5076573;27;45638;-59
2024/03/11 05:33:46;;;;;;;;;6.33;6.33;;;;;;;;5078594;27;45423;-58
2024/03/11 05:36:13;;;;;;;;;8.67;8.67;;;;;;;;5073171;27;45315;-59
2024/03/11 05:38:38;;;;;;;;;8.00;8.00;;;;;;;;5082274;27;47037;-59
2024/03/11 05:41:04;;;;;;;;;12.00;10.67;;;;;;;;5076298;27;45460;-59
2024/03/11 05:43:29;;;;;;;;;8.67;7.00;;;;;;;;5081533;27;45428;-59
2024/03/11 05:45:54;;;;;;;;;13.00;8.67;;;;;;;;5080112;27;45603;-59
2024/03/11 05:48:19;;;;;;;;;7.00;7.00;;;;;;;;5084795;27;45330;-59
2024/03/11 05:50:46;;;;;;;;;11.00;8.00;;;;;;;;5076537;27;45750;-59
2024/03/11 05:53:12;;;;;;;;;8.00;7.00;;;;;;;;5079644;27;45418;-59
2024/03/11 05:55:38;;;;;;;;;11.33;9.33;;;;;;;;5084691;27;45653;-59
2024/03/11 05:58:08;;;;;;;;;11.67;11.67;;;;;;;;5077237;27;46122;-59
2024/03/11 06:00:34;;;;;;;;;7.00;7.00;;;;;;;;5080479;27;45164;-59
2024/03/11 06:02:59;;;;;;;;;14.00;11.33;;;;;;;;5085794;27;45354;-59
2024/03/11 06:05:24;;;;;;;;;7.00;7.00;;;;;;;;5083023;27;45318;-59
2024/03/11 06:07:51;;;;;;;;;9.00;7.00;;;;;;;;5079436;27;48149;-58
2024/03/11 06:10:16;;;;;;;;;13.00;8.67;;;;;;;;5084754;27;45466;-59
2024/03/11 06:12:43;;;;;;;;;7.67;7.67;;;;;;;;5075368;27;45341;-59
2024/03/11 06:15:09;;;;;;;;;10.67;8.00;;;;;;;;5074817;27;45547;-59
2024/03/11 06:17:34;;;;;;;;;7.00;6.67;;;;;;;;5080996;27;45734;-59
2024/03/11 06:20:01;;;;;;;;;7.67;7.67;;;;;;;;5078354;27;45391;-59
2024/03/11 06:22:27;;;;;;;;;7.00;6.33;;;;;;;;5081129;27;45463;-59
2024/03/11 06:24:52;;;;;;;;;4.00;4.00;;;;;;;;5073956;27;45504;-59
2024/03/11 06:27:18;;;;;;;;;8.33;7.67;;;;;;;;5075933;27;46103;-58
2024/03/11 06:29:43;;;;;;;;;8.00;7.00;;;;;;;;5068029;27;45387;-58
2024/03/11 06:32:09;;;;;;;;;9.33;7.00;;;;;;;;5069368;27;45217;-59
2024/03/11 06:34:34;;;;;;;;;8.33;8.00;;;;;;;;5078433;27;45438;-58
2024/03/11 06:37:00;;;;;;;;;8.67;8.00;;;;;;;;5077873;27;45345;-58
2024/03/11 06:39:25;;;;;;;;;8.67;8.67;;;;;;;;5078116;27;45470;-59
2024/03/11 06:41:51;;;;;;;;;14.00;9.33;;;;;;;;5079177;27;45471;-58
2024/03/11 06:44:17;;;;;;;;;9.67;9.33;;;;;;;;5078644;27;45412;-59
2024/03/11 06:46:42;;;;;;;;;7.33;7.33;;;;;;;;5079650;27;46882;-59
2024/03/11 06:49:08;;;;;;;;;16.67;11.00;;;;;;;;5080016;27;45670;-59
2024/03/11 06:51:33;;;;;;;;;10.33;8.33;;;;;;;;5084266;27;45636;-59
2024/03/11 06:54:01;;;;;;;;;11.67;10.33;;;;;;;;5088647;27;45542;-59
2024/03/11 06:56:27;;;;;;;;;8.67;7.67;;;;;;;;5089474;27;47555;-59
2024/03/11 06:58:53;;;;;;;;;11.67;6.33;;;;;;;;5087638;27;45324;-59
2024/03/11 07:01:18;;;;;;;;;7.00;7.00;;;;;;;;5077730;27;45381;-59
2024/03/11 07:03:44;;;;;;;;;7.00;5.33;;;;;;;;5083036;27;45272;-59
2024/03/11 07:06:09;;;;;;;;;10.00;9.00;;;;;;;;5083814;27;46377;-59
2024/03/11 07:08:36;;;;;;;;;8.00;7.00;;;;;;;;5086639;27;45472;-59
2024/03/11 07:11:01;;;;;;;;;10.00;8.33;;;;;;;;5089346;27;45497;-59
2024/03/11 07:13:31;;;;;;;;;7.00;6.67;;;;;;;;5094068;27;45533;-59
2024/03/11 07:15:57;;;;;;;;;7.00;7.00;;;;;;;;5082510;27;46016;-59
2024/03/11 07:18:22;;;;;;;;;8.67;8.00;;;;;;;;5084098;27;45456;-59
2024/03/11 07:20:48;;;;;;;;;10.00;8.33;;;;;;;;5077083;27;45524;-58
2024/03/11 07:23:14;;;;;;;;;7.00;7.00;;;;;;;;5084222;27;45402;-59
2024/03/11 07:25:39;;;;;;;;;6.00;5.67;;;;;;;;5086534;27;46140;-59
2024/03/11 07:28:05;;;;;;;;;6.00;6.00;;;;;;;;5087204;27;45413;-59
2024/03/11 07:30:30;;;;;;;;;6.00;6.00;;;;;;;;5080227;27;45396;-59
2024/03/11 07:33:06;;;;;;;;;8.67;7.00;;;;;;;;5091123;27;45571;-59
2024/03/11 07:35:32;;;;;;;;;7.00;7.00;;;;;;;;5078161;27;45540;-57
2024/03/11 07:37:57;;;;;;;;;7.67;6.33;;;;;;;;5085663;27;45361;-58
2024/03/11 07:40:23;;;;;;;;;7.00;7.00;;;;;;;;5075266;27;45231;-58
2024/03/11 07:42:48;;;;;;;;;9.33;6.00;;;;;;;;5083520;27;45588;-58
2024/03/11 07:45:13;;;;;;;;;6.33;6.00;;;;;;;;5083217;27;45840;-57
2024/03/11 07:47:39;;;;;;;;;6.33;5.00;;;;;;;;5085035;27;45432;-57
2024/03/11 07:50:05;;;;;;;;;5.67;5.67;;;;;;;;5081798;27;45639;-57
2024/03/11 07:52:30;;;;;;;;;9.33;6.00;;;;;;;;5081782;27;45557;-57
2024/03/11 07:54:55;;;;;;;;;7.33;7.33;;;;;;;;5084709;27;46662;-57
2024/03/11 07:57:20;;;;;;;;;7.00;7.00;;;;;;;;5081548;27;45673;-57
2024/03/11 07:59:46;;;;;;;;;8.00;7.67;;;;;;;;5084687;27;45454;-57
2024/03/11 08:02:11;;;;;;;;;8.67;7.00;;;;;;;;5082704;27;46475;-57
2024/03/11 08:04:36;;;;;;;;;7.67;6.00;;;;;;;;5083088;27;45349;-57
2024/03/11 08:07:02;;;;;;;;;11.33;8.00;;;;;;;;5092115;27;45438;-57
2024/03/11 08:09:28;;;;;;;;;6.67;6.00;;;;;;;;5057670;28;45506;-57
2024/03/11 08:11:54;;;;;;;;;9.33;8.00;;;;;;;;5060646;28;45624;-57
2024/03/11 08:14:19;;;;;;;;;5.33;5.00;;;;;;;;5069754;28;45478;-57
2024/03/11 08:16:44;;;;;;;;;6.00;6.00;;;;;;;;5079274;28;45587;-57
2024/03/11 08:19:09;;;;;;;;;8.00;6.67;;;;;;;;5087097;27;45349;-57
2024/03/11 08:21:35;;;;;;;;;7.33;6.67;;;;;;;;5084322;27;45633;-57
2024/03/11 08:24:00;;;;;;;;;7.00;6.00;;;;;;;;5080978;27;46170;-57
2024/03/11 08:26:28;;;;;;;;;5.67;5.67;;;;;;;;5079930;27;45255;-57
2024/03/11 08:28:53;;;;;;;;;9.33;6.00;;;;;;;;5074529;28;45399;-57
2024/03/11 08:31:18;;;;;;;;;7.00;7.00;;;;;;;;5078522;28;45390;-57
2024/03/11 08:33:44;;;;;;;;;5.33;5.00;;;;;;;;5078745;28;46000;-57
2024/03/11 08:36:09;;;;;;;;;6.33;6.33;;;;;;;;5079141;27;45333;-57
2024/03/11 08:38:38;;;;;;;;;12.33;8.00;;;;;;;;5080038;27;45375;-57
2024/03/11 08:41:05;;;;;;;;;7.67;7.33;;;;;;;;5080177;27;45559;-57
2024/03/11 08:43:30;;;;;;;;;7.33;7.33;;;;;;;;5079586;27;46729;-57
2024/03/11 08:45:57;;;;;;;;;6.00;6.00;;;;;;;;5077925;27;45267;-57
2024/03/11 08:48:23;;;;;;;;;5.33;4.33;;;;;;;;5080532;27;45426;-58
2024/03/11 08:50:48;;;;;;;;;6.00;4.67;;;;;;;;5076355;27;45406;-57
2024/03/11 08:53:15;;;;;;;;;7.00;7.00;;;;;;;;5080895;27;46718;-57
2024/03/11 08:55:40;;;;;;;;;6.00;4.00;;;;;;;;5078978;27;45411;-57
2024/03/11 08:58:05;;;;;;;;;8.00;5.33;;;;;;;;5079952;27;45966;-57
2024/03/11 09:00:31;;;;;;;;;7.67;6.67;;;;;;;;5080810;27;45411;-57
2024/03/11 09:02:56;;;;;;;;;8.33;5.00;;;;;;;;5079216;27;46900;-58
2024/03/11 09:05:22;;;;;;;;;5.00;5.00;;;;;;;;5078513;27;45364;-57
2024/03/11 09:07:47;;;;;;;;;5.00;3.67;;;;;;;;5070902;27;45336;-57
2024/03/11 09:10:16;;;;;;;;;6.33;4.00;;;;;;;;5080497;27;45389;-57
2024/03/11 09:12:42;;;;;;;;;8.00;5.67;;;;;;;;5081363;27;46177;-57
2024/03/11 09:15:12;;;;;;;;;4.67;4.00;;;;;;;;5081066;27;45329;-58
2024/03/11 09:17:39;;;;;;;;;7.00;5.00;;;;;;;;5081672;27;45393;-58
2024/03/11 09:20:05;;;;;;;;;5.67;3.67;;;;;;;;5081527;27;45424;-57
2024/03/11 09:22:33;;;;;;;;;4.00;4.00;;;;;;;;5081006;27;45640;-57
2024/03/11 09:24:58;;;;;;;;;7.00;6.67;;;;;;;;5081747;27;45533;-58
2024/03/11 09:27:24;;;;;;;;;2.67;2.67;;;;;;;;5079395;27;45502;-58
2024/03/11 09:29:49;;;;;;;;;7.00;2.33;;;;;;;;5079169;27;45464;-58
2024/03/11 09:32:14;;;;;;;;;3.33;2.67;;;;;;;;5078697;27;48213;-58
2024/03/11 09:34:39;;;;;;;;;4.33;2.00;;;;;;;;5081397;27;45381;-57
2024/03/11 09:37:05;;;;;;;;;4.00;3.67;;;;;;;;5077932;27;45551;-58
2024/03/11 09:39:30;;;;;;;;;3.67;3.00;;;;;;;;5081408;27;45647;-58
2024/03/11 09:42:00;;;;;;;;;4.33;3.33;;;;;;;;5080969;27;45386;-58
2024/03/11 09:44:25;;;;;;;;;4.33;1.33;;;;;;;;5081945;27;45227;-58
2024/03/11 09:46:51;;;;;;;;;2.67;2.67;;;;;;;;5081186;27;45459;-58
2024/03/11 09:49:19;;;;;;;;;4.67;2.33;;;;;;;;5082387;27;45459;-58
2024/03/11 09:51:45;;;;;;;;;3.00;3.00;;;;;;;;5079409;27;47169;-58
2024/03/11 09:54:13;;;;;;;;;3.00;3.00;;;;;;;;5080714;27;45411;-58
2024/03/11 09:56:38;;;;;;;;;3.00;2.00;;;;;;;;5081282;27;45365;-58
2024/03/11 09:59:04;;;;;;;;;6.50;2.00;;;;;;;;5081772;27;45222;-58
2024/03/11 10:01:31;;;;;;;;;3.75;2.00;;;;;;;;5080555;27;46202;-58
2024/03/11 10:03:59;;;;;;;;;2.00;2.00;;;;;;;;5077541;27;45268;-58
2024/03/11 10:06:27;;;;;;;;;0.25;0.00;;;;;;;;5069733;27;45730;-58
2024/03/11 10:08:53;;;;;;;;;3.00;3.00;;;;;;;;5079310;28;45279;-58
2024/03/11 10:11:24;;;;;;;;;2.75;2.75;;;;;;;;5068645;27;45533;-59
2024/03/11 10:13:52;;;;;;;;;2.50;2.50;;;;;;;;5060266;28;45495;-59
2024/03/11 10:16:18;;;;;;;;;6.75;1.75;;;;;;;;5070503;28;45405;-59
2024/03/11 10:19:00;;;;;;;;;1.00;1.00;;;;;;;;5078999;27;45517;-58
2024/03/11 10:21:28;;;;;;;;;3.75;3.75;;;;;;;;5078424;27;47122;-58
2024/03/11 10:23:58;;;;;;;;;4.75;1.25;;;;;;;;5066918;28;45342;-59
2024/03/11 10:26:27;;;;;;;;;2.50;2.25;;;;;;;;5070583;27;45283;-59
2024/03/11 10:28:56;;;;;;;;;4.00;2.00;;;;;;;;5071099;28;45481;-59
2024/03/11 10:31:23;;;;;;;;;1.75;1.75;;;;;;;;5073856;28;46271;-58
2024/03/11 10:33:50;;;;;;;;;4.00;2.75;;;;;;;;5077829;28;45430;-59
2024/03/11 10:36:15;;;;;;;;;2.00;2.00;;;;;;;;5062907;27;45578;-59
2024/03/11 10:38:41;;;;;;;;;3.75;2.00;;;;;;;;5068466;28;45628;-58
2024/03/11 10:41:16;;;;;;;;;1.50;1.50;;;;;;;;5064762;28;46085;-58
2024/03/11 10:43:41;;;;;;;;;4.00;2.00;;;;;;;;5082106;27;45392;-58
2024/03/11 10:46:17;;;;;;;;;2.00;2.00;;;;;;;;5081324;27;45375;-59
2024/03/11 10:48:45;;;;;;;;;1.75;1.00;;;;;;;;5081316;28;45359;-59
2024/03/11 10:51:12;;;;;;;;;2.75;2.00;;;;;;;;5079336;28;46170;-58
2024/03/11 10:53:42;;;;;;;;;4.00;1.50;;;;;;;;5082906;27;45467;-58
2024/03/11 10:56:10;;;;;;;;;1.40;1.40;;;;;;;;5082521;27;45477;-59
2024/03/11 10:58:38;;;;;;;;;0.25;0.25;;;;;;;;5083616;27;45284;-59
2024/03/11 11:01:06;;;;;;;;;1.00;1.00;;;;;;;;5082328;27;45374;-58
2024/03/11 11:03:31;;;;;;;;;3.60;2.00;;;;;;;;5083766;27;45537;-58
2024/03/11 11:05:56;;;;;;;;;2.00;0.50;;;;;;;;5083382;27;45733;-59
2024/03/11 11:08:30;;;;;;;;;0.75;0.75;;;;;;;;5085460;27;45393;-59
2024/03/11 11:10:57;;;;;;;;;3.00;2.00;;;;;;;;5083783;27;45648;-59
2024/03/11 11:13:24;;;;;;;;;0.20;0.00;;;;;;;;5085305;27;45373;-58
2024/03/11 11:15:50;;;;;;;;;3.50;1.00;;;;;;;;5084017;27;45430;-59
2024/03/11 11:18:17;;;;;;;;;1.00;1.00;;;;;;;;5085478;27;45573;-58
2024/03/11 11:20:49;;;;;;;;;1.50;0.75;;;;;;;;5083656;27;45357;-59
2024/03/11 11:23:25;;;;;;;;;2.00;2.00;;;;;;;;5085402;27;45291;-59
2024/03/11 11:25:51;;;;;;;;;3.00;1.00;;;;;;;;5083069;27;46015;-58
2024/03/11 11:28:25;;;;;;;;;0.75;0.50;;;;;;;;5085662;27;46390;-58
2024/03/11 11:31:11;;;;;;;;;3.25;1.75;;;;;;;;5084525;27;45575;-58
2024/03/11 11:33:53;;;;;;;;;2.50;1.00;;;;;;;;5084447;27;45329;-58
2024/03/11 11:36:31;;;;;;;;;1.00;1.00;;;;;;;;5086589;27;45522;-58
2024/03/11 11:39:13;;;;;;;;;2.00;1.00;;;;;;;;5085427;27;45369;-58
2024/03/11 11:41:39;;;;;;;;;1.00;1.00;;;;;;;;5084380;27;46081;-58
2024/03/11 11:44:05;;;;;;;;;1.00;1.00;;;;;;;;5083508;27;45448;-58
2024/03/11 11:46:43;;;;;;;;;1.50;1.50;;;;;;;;5084610;27;45420;-58
2024/03/11 11:49:16;;;;;;;;;3.75;1.50;;;;;;;;5087374;27;45543;-58
2024/03/11 11:51:42;;;;;;;;;1.75;1.00;;;;;;;;5076540;27;46449;-58
2024/03/11 11:54:28;;;;;;;;;1.00;1.00;;;;;;;;5077458;27;45291;-58
2024/03/11 11:57:04;;;;;;;;;1.50;1.50;;;;;;;;5081318;27;45388;-58
2024/03/11 11:59:30;;;;;;;;;2.50;1.00;;;;;;;;5071556;27;45287;-58
2024/03/11 12:02:00;;;;;;;;;2.00;2.00;;;;;;;;5082213;27;46631;-58
2024/03/11 12:04:25;;;;;;;;;2.00;2.00;;;;;;;;5077601;27;45337;-58
2024/03/11 12:06:50;;;;;;;;;1.25;1.25;;;;;;;;5069632;27;45390;-58
2024/03/11 12:09:16;;;;;;;;;1.00;1.00;;;;;;;;5080867;27;45147;-58
2024/03/11 12:11:45;;;;;;;;;1.75;1.75;;;;;;;;5083723;27;46160;-58
2024/03/11 12:14:11;;;;;;;;;2.00;2.00;;;;;;;;5082197;27;45320;-58
2024/03/11 12:16:38;;;;;;;;;3.00;2.00;;;;;;;;5084249;27;45397;-61
2024/03/11 12:19:09;;;;;;;;;3.75;3.00;;;;;;;;5082055;27;45669;-58
2024/03/11 12:21:38;;;;;;;;;2.67;2.67;;;;;;;;5084116;27;46570;-58
2024/03/11 12:24:09;;;;;;;;;2.50;2.50;;;;;;;;5080799;27;45441;-58
2024/03/11 12:26:34;;;;;;;;;2.00;2.00;;;;;;;;5085149;27;45492;-58
2024/03/11 12:29:01;;;;;;;;;2.33;2.33;;;;;;;;5077444;28;45478;-61
2024/03/11 12:31:26;;;;;;;;;1.00;1.00;;;;;;;;5084604;27;46347;-58
2024/03/11 12:33:51;;;;;;;;;2.75;2.00;;;;;;;;5081106;27;45473;-59
2024/03/11 12:36:17;;;;;;;;;5.00;3.25;;;;;;;;5084199;27;45822;-58
2024/03/11 12:38:42;;;;;;;;;7.67;6.00;;;;;;;;5083621;27;45511;-58
2024/03/11 12:41:08;;;;;;;;;5.00;4.00;;;;;;;;5085850;27;46647;-58
2024/03/11 12:43:35;;;;;;;;;5.25;4.75;;;;;;;;5083074;27;45599;-58
2024/03/11 12:46:02;;;;;;;;;7.00;4.00;;;;;;;;5083260;27;45403;-58
2024/03/11 12:48:28;;;;;;;;;9.67;6.00;;;;;;;;5083216;27;45385;-58
2024/03/11 12:51:02;;;;;;;;;6.00;6.00;;;;;;;;5085019;27;45349;-58
2024/03/11 12:53:29;;;;;;;;;5.00;4.67;;;;;;;;5081458;27;45330;-58
2024/03/11 12:56:01;;;;;;;;;8.00;7.00;;;;;;;;5081799;27;45404;-58
2024/03/11 12:58:27;;;;;;;;;14.00;9.00;;;;;;;;5081241;27;45366;-58
2024/03/11 13:01:01;;;;;;;;;14.00;10.67;;;;;;;;5069446;27;45454;-58
2024/03/11 13:03:26;;;;;;;;;9.00;9.00;;;;;;;;5081222;27;45373;-58
2024/03/11 13:06:01;;;;;;;;;15.00;13.00;;;;;;;;5071659;27;45224;-58
2024/03/11 13:08:30;;;;;;;;;9.67;8.67;;;;;;;;5083706;27;45456;-58
2024/03/11 13:11:08;;;;;;;;;11.00;7.00;;;;;;;;5081933;27;45424;-58
2024/03/11 13:13:37;;;;;;;;;6.67;6.67;;;;;;;;5082746;27;45365;-58
2024/03/11 13:16:04;;;;;;;;;10.00;7.67;;;;;;;;5081893;27;45297;-58
2024/03/11 13:18:29;;;;;;;;;8.00;7.00;;;;;;;;5084189;27;45555;-58
2024/03/11 13:20:59;;;;;;;;;8.67;8.00;;;;;;;;5081744;27;46265;-58
2024/03/11 13:23:24;;;;;;;;;13.33;11.33;;;;;;;;5084580;27;45341;-58
2024/03/11 13:25:50;;;;;;;;;11.33;10.67;;;;;;;;5081307;27;45290;-57
2024/03/11 13:28:15;;;;;;;;;5.67;5.67;;;;;;;;5081978;27;45611;-58
2024/03/11 13:30:44;;;;;;;;;11.67;10.00;;;;;;;;5082297;27;45273;-57
2024/03/11 13:33:10;;;;;;;;;11.33;9.67;;;;;;;;5083812;27;45426;-60
2024/03/11 13:35:37;;;;;;;;;13.33;10.67;;;;;;;;5082952;27;45627;-57
2024/03/11 13:38:03;;;;;;;;;12.33;12.00;;;;;;;;5080544;27;45657;-57
2024/03/11 13:40:28;;;;;;;;;12.33;9.67;;;;;;;;5082675;27;45350;-57
2024/03/11 13:42:55;;;;;;;;;12.67;12.67;;;;;;;;5085169;27;45395;-58
2024/03/11 13:45:20;;;;;;;;;15.67;12.67;;;;;;;;5079602;27;45479;-57
2024/03/11 13:47:46;;;;;;;;;17.33;13.33;;;;;;;;5084260;27;45196;-58
2024/03/11 13:50:16;;;;;;;;;14.00;12.00;;;;;;;;5083096;27;45338;-58
2024/03/11 13:52:42;;;;;;;;;10.67;10.67;;;;;;;;5081633;27;45413;-58
2024/03/11 13:55:08;;;;;;;;;13.33;12.67;;;;;;;;5080331;27;45446;-58
2024/03/11 13:57:33;;;;;;;;;13.00;11.00;;;;;;;;5081926;27;45325;-58
2024/03/11 13:59:59;;;;;;;;;13.67;12.67;;;;;;;;5080755;27;45438;-58
2024/03/11 14:02:25;;;;;;;;;15.67;12.67;;;;;;;;5082129;27;45302;-57
2024/03/11 14:04:50;;;;;;;;;11.67;11.67;;;;;;;;5072302;27;45356;-58
2024/03/11 14:07:15;;;;;;;;;14.00;12.67;;;;;;;;5081212;27;45279;-58
2024/03/11 14:09:41;;;;;;;;;14.67;12.33;;;;;;;;5080082;27;45897;-58
2024/03/11 14:12:07;;;;;;;;;10.00;10.00;;;;;;;;5083010;27;45366;-58
2024/03/11 14:14:34;;;;;;;;;17.33;13.00;;;;;;;;5081667;27;45396;-58
2024/03/11 14:16:59;;;;;;;;;16.33;15.33;;;;;;;;5083672;27;45402;-58
2024/03/11 14:19:27;;;;;;;;;17.33;14.33;;;;;;;;5080018;27;47042;-58
2024/03/11 14:21:52;;;;;;;;;13.67;13.67;;;;;;;;5084009;27;45465;-57
2024/03/11 14:24:19;;;;;;;;;14.00;14.00;;;;;;;;5080254;27;45567;-58
2024/03/11 14:26:44;;;;;;;;;19.33;15.67;;;;;;;;5084837;27;45425;-57